Terminal Aerodrome Forecast
Issued by NWS

Home | Current Version | Previous Version | Text Only | Print | Product List | Glossary On
Versions: 1 2 3 4 5 6 7 8 9 10 11 12 13 14 15 16 17 18 19 20 21 22
000
FTUS44 KMOB 300543
TAFBFM
TAF
KBFM 300543Z 3006/3106 16012G19KT P6SM FEW015
     FM300800 15008KT 6SM BR BKN007
     FM301300 17010KT P6SM VCSH OVC015
     FM301600 17014KT P6SM VCTS BKN025CB
     FM301900 18015G30KT 3SM TSRA BKN030CB=

USA.gov is the U.S. government's official web portal to all federal, state and local government web resources and services.